TKJ8GV LTFJ-LTFE
Flight info
| Callsign | TKJ8GV |
|---|---|
| Flight time | 0h 51m |
| Altitude | 32000 |
| Route | ROXUK UT409 NUMTI DCT KULAR/N0442F310 UT44 KAVAK |
| Aircraft | B738/M-SDE2E3FGHIRWXY/LB1 |
Departure
| Time | 2026-04-21 17:25 |
|---|---|
| Airport | Istanbul Sabiha Gökçen International Airport (LTFJ) |
Arrival
| Time | 2026-04-21 18:16 |
|---|---|
| Airport | Milas Bodrum International Airport (LTFE) |
| Time | Latitude | Longitude | Altitude | Speed | Heading |
|---|---|---|---|---|---|
| 2026-04-21 17:02 | 40.90744 | 29.31942 | 320 ft | 0 kts | 334° |
| 2026-04-21 17:12 | 40.90732 | 29.31949 | 318 ft | 3 kts | 334° |
| 2026-04-21 17:12 | 40.90713 | 29.31961 | 320 ft | 3 kts | 334° |
| 2026-04-21 17:12 | 40.90695 | 29.31972 | 320 ft | 3 kts | 334° |
| 2026-04-21 17:12 | 40.90680 | 29.31981 | 320 ft | 3 kts | 332° |
| 2026-04-21 17:13 | 40.90666 | 29.31995 | 317 ft | 3 kts | 293° |
| 2026-04-21 17:13 | 40.90664 | 29.32017 | 317 ft | 3 kts | 250° |
| 2026-04-21 17:13 | 40.90670 | 29.32035 | 319 ft | 1 kts | 244° |
| 2026-04-21 17:13 | 40.90671 | 29.32040 | 319 ft | 0 kts | 244° |
| 2026-04-21 17:16 | 40.90665 | 29.32023 | 317 ft | 4 kts | 244° |
| 2026-04-21 17:16 | 40.90645 | 29.31971 | 318 ft | 9 kts | 241° |
| 2026-04-21 17:17 | 40.90577 | 29.31943 | 319 ft | 13 kts | 160° |
| 2026-04-21 17:17 | 40.90494 | 29.31992 | 320 ft | 13 kts | 170° |
| 2026-04-21 17:17 | 40.90432 | 29.31919 | 320 ft | 13 kts | 242° |
| 2026-04-21 17:17 | 40.90394 | 29.31812 | 319 ft | 14 kts | 243° |
| 2026-04-21 17:18 | 40.90346 | 29.31683 | 320 ft | 18 kts | 244° |
| 2026-04-21 17:18 | 40.90287 | 29.31523 | 320 ft | 21 kts | 244° |
| 2026-04-21 17:18 | 40.90217 | 29.31332 | 319 ft | 25 kts | 244° |
| 2026-04-21 17:18 | 40.90137 | 29.31116 | 319 ft | 27 kts | 244° |
| 2026-04-21 17:19 | 40.90050 | 29.30879 | 320 ft | 30 kts | 244° |
| 2026-04-21 17:19 | 40.89956 | 29.30622 | 320 ft | 30 kts | 243° |
| 2026-04-21 17:19 | 40.89871 | 29.30387 | 319 ft | 28 kts | 245° |
| 2026-04-21 17:19 | 40.89788 | 29.30164 | 319 ft | 26 kts | 244° |
| 2026-04-21 17:20 | 40.89711 | 29.29955 | 320 ft | 25 kts | 244° |
| 2026-04-21 17:20 | 40.89639 | 29.29758 | 320 ft | 23 kts | 244° |
| 2026-04-21 17:20 | 40.89570 | 29.29572 | 320 ft | 22 kts | 244° |
| 2026-04-21 17:20 | 40.89503 | 29.29390 | 320 ft | 22 kts | 244° |
| 2026-04-21 17:21 | 40.89448 | 29.29269 | 320 ft | 13 kts | 217° |
| 2026-04-21 17:21 | 40.89382 | 29.29259 | 319 ft | 9 kts | 160° |
| 2026-04-21 17:21 | 40.89358 | 29.29274 | 319 ft | 0 kts | 154° |
| 2026-04-21 17:23 | 40.89345 | 29.29283 | 319 ft | 6 kts | 153° |
| 2026-04-21 17:23 | 40.89297 | 29.29335 | 321 ft | 12 kts | 115° |
| 2026-04-21 17:23 | 40.89310 | 29.29439 | 321 ft | 11 kts | 64° |
| 2026-04-21 17:24 | 40.89318 | 29.29462 | 320 ft | 0 kts | 65° |
| 2026-04-21 17:24 | 40.89325 | 29.29481 | 321 ft | 17 kts | 64° |
| 2026-04-21 17:25 | 40.89485 | 29.29913 | 320 ft | 86 kts | 64° |
| 2026-04-21 17:25 | 40.89842 | 29.30866 | 325 ft | 142 kts | 61° |
| 2026-04-21 17:25 | 40.90309 | 29.32130 | 769 ft | 158 kts | 62° |
| 2026-04-21 17:25 | 40.90806 | 29.33478 | 1400 ft | 169 kts | 64° |
| 2026-04-21 17:26 | 40.91328 | 29.34903 | 2099 ft | 174 kts | 65° |
| 2026-04-21 17:26 | 40.91900 | 29.36467 | 2357 ft | 204 kts | 64° |
| 2026-04-21 17:26 | 40.92553 | 29.38247 | 2532 ft | 227 kts | 65° |
| 2026-04-21 17:26 | 40.92970 | 29.40340 | 2900 ft | 246 kts | 91° |
| 2026-04-21 17:27 | 40.92537 | 29.42562 | 3386 ft | 261 kts | 121° |
| 2026-04-21 17:27 | 40.91253 | 29.44270 | 3972 ft | 268 kts | 150° |
| 2026-04-21 17:27 | 40.89590 | 29.45413 | 4688 ft | 272 kts | 158° |
| 2026-04-21 17:27 | 40.87790 | 29.46105 | 5388 ft | 270 kts | 184° |
| 2026-04-21 17:28 | 40.85985 | 29.45638 | 6238 ft | 263 kts | 201° |
| 2026-04-21 17:28 | 40.84225 | 29.44933 | 7012 ft | 264 kts | 201° |
| 2026-04-21 17:28 | 40.82475 | 29.44218 | 7804 ft | 264 kts | 201° |
| 2026-04-21 17:28 | 40.80710 | 29.43506 | 8558 ft | 266 kts | 201° |
| 2026-04-21 17:29 | 40.78935 | 29.42802 | 9328 ft | 267 kts | 201° |
| 2026-04-21 17:29 | 40.77147 | 29.42104 | 10080 ft | 269 kts | 201° |
| 2026-04-21 17:29 | 40.75313 | 29.41395 | 10439 ft | 285 kts | 201° |
| 2026-04-21 17:29 | 40.73335 | 29.40633 | 10605 ft | 307 kts | 200° |
| 2026-04-21 17:30 | 40.71219 | 29.39826 | 10810 ft | 325 kts | 200° |
| 2026-04-21 17:30 | 40.69014 | 29.38997 | 11327 ft | 332 kts | 200° |
| 2026-04-21 17:30 | 40.66775 | 29.38163 | 11928 ft | 337 kts | 200° |
| 2026-04-21 17:30 | 40.64505 | 29.37322 | 12574 ft | 340 kts | 199° |
| 2026-04-21 17:31 | 40.62210 | 29.36475 | 13250 ft | 344 kts | 200° |
| 2026-04-21 17:31 | 40.59887 | 29.35616 | 13876 ft | 350 kts | 200° |
| 2026-04-21 17:31 | 40.57562 | 29.34756 | 14454 ft | 354 kts | 200° |
| 2026-04-21 17:31 | 40.55182 | 29.33877 | 15100 ft | 357 kts | 200° |
| 2026-04-21 17:32 | 40.52774 | 29.32989 | 15745 ft | 361 kts | 200° |
| 2026-04-21 17:32 | 40.50337 | 29.32090 | 16342 ft | 366 kts | 200° |
| 2026-04-21 17:32 | 40.47863 | 29.31177 | 16871 ft | 373 kts | 200° |
| 2026-04-21 17:32 | 40.45346 | 29.30250 | 17465 ft | 377 kts | 200° |
| 2026-04-21 17:33 | 40.42810 | 29.29317 | 18093 ft | 381 kts | 200° |
| 2026-04-21 17:33 | 40.40241 | 29.28373 | 18618 ft | 385 kts | 200° |
| 2026-04-21 17:33 | 40.37650 | 29.27422 | 19177 ft | 388 kts | 200° |
| 2026-04-21 17:33 | 40.35038 | 29.26465 | 19732 ft | 391 kts | 200° |
| 2026-04-21 17:34 | 40.32403 | 29.25499 | 20265 ft | 394 kts | 200° |
| 2026-04-21 17:34 | 40.29751 | 29.24528 | 20836 ft | 397 kts | 201° |
| 2026-04-21 17:34 | 40.27079 | 29.23550 | 21389 ft | 401 kts | 201° |
| 2026-04-21 17:34 | 40.24381 | 29.22564 | 21882 ft | 404 kts | 201° |
| 2026-04-21 17:35 | 40.21663 | 29.21571 | 22382 ft | 407 kts | 201° |
| 2026-04-21 17:35 | 40.18924 | 29.20570 | 22890 ft | 410 kts | 201° |
| 2026-04-21 17:35 | 40.16171 | 29.19565 | 23396 ft | 413 kts | 201° |
| 2026-04-21 17:35 | 40.13400 | 29.18555 | 23837 ft | 414 kts | 201° |
| 2026-04-21 17:36 | 40.10617 | 29.17542 | 24253 ft | 416 kts | 201° |
| 2026-04-21 17:36 | 40.07818 | 29.16524 | 24632 ft | 419 kts | 201° |
| 2026-04-21 17:36 | 40.04994 | 29.15498 | 25030 ft | 421 kts | 201° |
| 2026-04-21 17:36 | 40.02161 | 29.14468 | 25409 ft | 424 kts | 201° |
| 2026-04-21 17:37 | 39.99309 | 29.13431 | 25783 ft | 427 kts | 201° |
| 2026-04-21 17:37 | 39.96435 | 29.12389 | 26135 ft | 430 kts | 201° |
| 2026-04-21 17:37 | 39.93544 | 29.11341 | 26436 ft | 433 kts | 201° |
| 2026-04-21 17:37 | 39.90672 | 29.10302 | 26804 ft | 435 kts | 201° |
| 2026-04-21 17:38 | 39.87716 | 29.09233 | 27185 ft | 436 kts | 201° |
| 2026-04-21 17:38 | 39.84778 | 29.08171 | 27499 ft | 439 kts | 201° |
| 2026-04-21 17:38 | 39.81869 | 29.07121 | 27832 ft | 441 kts | 201° |
| 2026-04-21 17:38 | 39.78909 | 29.06054 | 28143 ft | 442 kts | 201° |
| 2026-04-21 17:39 | 39.75944 | 29.04986 | 28551 ft | 442 kts | 201° |
| 2026-04-21 17:39 | 39.72944 | 29.03908 | 29040 ft | 440 kts | 201° |
| 2026-04-21 17:39 | 39.69998 | 29.02850 | 29542 ft | 439 kts | 201° |
| 2026-04-21 17:39 | 39.67098 | 29.01809 | 29990 ft | 438 kts | 201° |
| 2026-04-21 17:40 | 39.64163 | 29.00755 | 30346 ft | 437 kts | 201° |
| 2026-04-21 17:40 | 39.61236 | 28.99705 | 30682 ft | 436 kts | 201° |
| 2026-04-21 17:40 | 39.58312 | 28.98656 | 31040 ft | 436 kts | 201° |
| 2026-04-21 17:40 | 39.55390 | 28.97609 | 31413 ft | 435 kts | 201° |
| 2026-04-21 17:41 | 39.52478 | 28.96568 | 31795 ft | 433 kts | 201° |
| 2026-04-21 17:41 | 39.49566 | 28.95525 | 31945 ft | 437 kts | 201° |
| 2026-04-21 17:41 | 39.43676 | 28.93418 | 31914 ft | 438 kts | 201° |
| 2026-04-21 17:42 | 39.37855 | 28.91349 | 31936 ft | 431 kts | 201° |
| 2026-04-21 17:42 | 39.32069 | 28.89288 | 31943 ft | 432 kts | 201° |
| 2026-04-21 17:43 | 39.26271 | 28.87227 | 31945 ft | 433 kts | 201° |
| 2026-04-21 17:43 | 39.20471 | 28.85168 | 31949 ft | 432 kts | 201° |
| 2026-04-21 17:44 | 39.14656 | 28.83110 | 31948 ft | 434 kts | 201° |
| 2026-04-21 17:44 | 39.08861 | 28.81061 | 31958 ft | 435 kts | 201° |
| 2026-04-21 17:45 | 39.03013 | 28.78998 | 31958 ft | 436 kts | 201° |
| 2026-04-21 17:45 | 38.97149 | 28.76932 | 31940 ft | 436 kts | 201° |
| 2026-04-21 17:46 | 38.91293 | 28.74874 | 31955 ft | 436 kts | 201° |
| 2026-04-21 17:46 | 38.85438 | 28.72819 | 31945 ft | 435 kts | 201° |
| 2026-04-21 17:47 | 38.79593 | 28.70771 | 31943 ft | 435 kts | 201° |
| 2026-04-21 17:47 | 38.73756 | 28.68728 | 31948 ft | 435 kts | 201° |
| 2026-04-21 17:48 | 38.67914 | 28.66687 | 31937 ft | 435 kts | 201° |
| 2026-04-21 17:48 | 38.62090 | 28.64657 | 31933 ft | 429 kts | 201° |
| 2026-04-21 17:49 | 38.59220 | 28.63744 | 31687 ft | 424 kts | 196° |
| 2026-04-21 17:49 | 38.56285 | 28.63374 | 31376 ft | 425 kts | 186° |
| 2026-04-21 17:49 | 38.53330 | 28.63547 | 30996 ft | 424 kts | 182° |
| 2026-04-21 17:49 | 38.50395 | 28.63818 | 30589 ft | 422 kts | 182° |
| 2026-04-21 17:50 | 38.47473 | 28.64103 | 30199 ft | 419 kts | 182° |
| 2026-04-21 17:50 | 38.44579 | 28.64379 | 29790 ft | 416 kts | 182° |
| 2026-04-21 17:50 | 38.41741 | 28.64636 | 29367 ft | 412 kts | 182° |
| 2026-04-21 17:50 | 38.38895 | 28.64884 | 28965 ft | 408 kts | 182° |
| 2026-04-21 17:51 | 38.36067 | 28.65123 | 28565 ft | 405 kts | 182° |
| 2026-04-21 17:51 | 38.33270 | 28.65354 | 28179 ft | 401 kts | 182° |
| 2026-04-21 17:51 | 38.30491 | 28.65582 | 27781 ft | 398 kts | 182° |
| 2026-04-21 17:51 | 38.27739 | 28.65806 | 27385 ft | 394 kts | 182° |
| 2026-04-21 17:52 | 38.25010 | 28.66028 | 27003 ft | 391 kts | 182° |
| 2026-04-21 17:52 | 38.22307 | 28.66248 | 26627 ft | 388 kts | 182° |
| 2026-04-21 17:52 | 38.19617 | 28.66467 | 26247 ft | 386 kts | 182° |
| 2026-04-21 17:52 | 38.16952 | 28.66683 | 25888 ft | 383 kts | 182° |
| 2026-04-21 17:53 | 38.14302 | 28.66898 | 25505 ft | 380 kts | 182° |
| 2026-04-21 17:53 | 38.11667 | 28.67112 | 25141 ft | 378 kts | 182° |
| 2026-04-21 17:53 | 38.09046 | 28.67324 | 24769 ft | 377 kts | 182° |
| 2026-04-21 17:53 | 38.06439 | 28.67535 | 24393 ft | 375 kts | 181° |
| 2026-04-21 17:54 | 38.03844 | 28.67746 | 24037 ft | 373 kts | 181° |
| 2026-04-21 17:54 | 38.01264 | 28.67955 | 23671 ft | 371 kts | 181° |
| 2026-04-21 17:54 | 37.98698 | 28.68162 | 23268 ft | 369 kts | 181° |
| 2026-04-21 17:54 | 37.96147 | 28.68369 | 22869 ft | 366 kts | 181° |
| 2026-04-21 17:55 | 37.93617 | 28.68575 | 22487 ft | 363 kts | 181° |
| 2026-04-21 17:55 | 37.91104 | 28.68778 | 22120 ft | 360 kts | 181° |
| 2026-04-21 17:55 | 37.88610 | 28.68979 | 21755 ft | 358 kts | 181° |
| 2026-04-21 17:55 | 37.86130 | 28.69179 | 21388 ft | 355 kts | 181° |
| 2026-04-21 17:56 | 37.83672 | 28.69377 | 21045 ft | 353 kts | 181° |
| 2026-04-21 17:56 | 37.81225 | 28.69575 | 20690 ft | 351 kts | 181° |
| 2026-04-21 17:56 | 37.78794 | 28.69770 | 20339 ft | 350 kts | 181° |
| 2026-04-21 17:56 | 37.76366 | 28.69965 | 19993 ft | 348 kts | 181° |
| 2026-04-21 17:57 | 37.73955 | 28.70159 | 19651 ft | 347 kts | 181° |
| 2026-04-21 17:57 | 37.71548 | 28.70351 | 19303 ft | 345 kts | 181° |
| 2026-04-21 17:57 | 37.69157 | 28.70528 | 18960 ft | 344 kts | 181° |
| 2026-04-21 17:57 | 37.66771 | 28.70699 | 18612 ft | 343 kts | 181° |
| 2026-04-21 17:58 | 37.64397 | 28.70867 | 18260 ft | 342 kts | 181° |
| 2026-04-21 17:58 | 37.62027 | 28.71036 | 17867 ft | 341 kts | 181° |
| 2026-04-21 17:58 | 37.59667 | 28.71205 | 17500 ft | 339 kts | 181° |
| 2026-04-21 17:58 | 37.57348 | 28.71372 | 17146 ft | 337 kts | 181° |
| 2026-04-21 17:59 | 37.55008 | 28.71540 | 16796 ft | 336 kts | 181° |
| 2026-04-21 17:59 | 37.52683 | 28.71708 | 16444 ft | 334 kts | 181° |
| 2026-04-21 17:59 | 37.50372 | 28.71874 | 16110 ft | 332 kts | 180° |
| 2026-04-21 17:59 | 37.48071 | 28.72070 | 15767 ft | 331 kts | 179° |
| 2026-04-21 18:00 | 37.45797 | 28.72300 | 15592 ft | 323 kts | 179° |
| 2026-04-21 18:00 | 37.43586 | 28.72526 | 15427 ft | 316 kts | 179° |
| 2026-04-21 18:00 | 37.41420 | 28.72742 | 15297 ft | 308 kts | 179° |
| 2026-04-21 18:00 | 37.39314 | 28.72950 | 15176 ft | 300 kts | 179° |
| 2026-04-21 18:01 | 37.37294 | 28.72785 | 15029 ft | 284 kts | 203° |
| 2026-04-21 18:01 | 37.35638 | 28.71601 | 14808 ft | 272 kts | 225° |
| 2026-04-21 18:01 | 37.34439 | 28.69793 | 14482 ft | 270 kts | 244° |
| 2026-04-21 18:01 | 37.33627 | 28.67664 | 14158 ft | 271 kts | 248° |
| 2026-04-21 18:02 | 37.33121 | 28.66224 | 13920 ft | 272 kts | 248° |
| 2026-04-21 18:02 | 37.32097 | 28.63296 | 13410 ft | 275 kts | 248° |
| 2026-04-21 18:02 | 37.31316 | 28.61090 | 13014 ft | 277 kts | 248° |
| 2026-04-21 18:02 | 37.30527 | 28.58880 | 12640 ft | 278 kts | 247° |
| 2026-04-21 18:03 | 37.30000 | 28.57414 | 12390 ft | 279 kts | 247° |
| 2026-04-21 18:03 | 37.29201 | 28.55192 | 12027 ft | 279 kts | 247° |
| 2026-04-21 18:03 | 37.28404 | 28.52984 | 11771 ft | 276 kts | 246° |
| 2026-04-21 18:03 | 37.27614 | 28.50802 | 11506 ft | 273 kts | 246° |
| 2026-04-21 18:04 | 37.26830 | 28.48641 | 11259 ft | 270 kts | 246° |
| 2026-04-21 18:04 | 37.26054 | 28.46499 | 11010 ft | 268 kts | 246° |
| 2026-04-21 18:04 | 37.25286 | 28.44381 | 10768 ft | 265 kts | 246° |
| 2026-04-21 18:04 | 37.24523 | 28.42279 | 10525 ft | 263 kts | 246° |
| 2026-04-21 18:05 | 37.23768 | 28.40197 | 10281 ft | 262 kts | 246° |
| 2026-04-21 18:05 | 37.23015 | 28.38126 | 10053 ft | 260 kts | 246° |
| 2026-04-21 18:05 | 37.22265 | 28.36063 | 9800 ft | 259 kts | 246° |
| 2026-04-21 18:05 | 37.21520 | 28.34018 | 9538 ft | 257 kts | 246° |
| 2026-04-21 18:06 | 37.20780 | 28.31986 | 9297 ft | 255 kts | 246° |
| 2026-04-21 18:06 | 37.20044 | 28.29970 | 9049 ft | 253 kts | 246° |
| 2026-04-21 18:06 | 37.19313 | 28.27964 | 8803 ft | 252 kts | 246° |
| 2026-04-21 18:06 | 37.18586 | 28.25972 | 8581 ft | 250 kts | 246° |
| 2026-04-21 18:07 | 37.17863 | 28.23992 | 8336 ft | 250 kts | 246° |
| 2026-04-21 18:07 | 37.17138 | 28.22003 | 8127 ft | 252 kts | 246° |
| 2026-04-21 18:07 | 37.16406 | 28.20000 | 7902 ft | 253 kts | 246° |
| 2026-04-21 18:07 | 37.15676 | 28.18007 | 7653 ft | 250 kts | 246° |
| 2026-04-21 18:08 | 37.14953 | 28.16033 | 7429 ft | 248 kts | 246° |
| 2026-04-21 18:08 | 37.14256 | 28.14069 | 7182 ft | 245 kts | 252° |
| 2026-04-21 18:08 | 37.14189 | 28.11985 | 6971 ft | 240 kts | 286° |
| 2026-04-21 18:08 | 37.14715 | 28.10048 | 6802 ft | 231 kts | 287° |
| 2026-04-21 18:09 | 37.15178 | 28.08165 | 6597 ft | 221 kts | 285° |
| 2026-04-21 18:09 | 37.15610 | 28.06362 | 6408 ft | 211 kts | 286° |
| 2026-04-21 18:09 | 37.16023 | 28.04628 | 6186 ft | 203 kts | 286° |
| 2026-04-21 18:09 | 37.16420 | 28.02965 | 5990 ft | 195 kts | 286° |
| 2026-04-21 18:10 | 37.16802 | 28.01362 | 5830 ft | 191 kts | 286° |
| 2026-04-21 18:10 | 37.17181 | 27.99773 | 5678 ft | 190 kts | 285° |
| 2026-04-21 18:10 | 37.17584 | 27.98185 | 5537 ft | 192 kts | 287° |
| 2026-04-21 18:10 | 37.17988 | 27.96604 | 5347 ft | 187 kts | 286° |
| 2026-04-21 18:11 | 37.18359 | 27.95085 | 5183 ft | 178 kts | 285° |
| 2026-04-21 18:11 | 37.18699 | 27.93655 | 5013 ft | 169 kts | 285° |
| 2026-04-21 18:11 | 37.19035 | 27.92235 | 4887 ft | 169 kts | 285° |
| 2026-04-21 18:11 | 37.19366 | 27.90826 | 4739 ft | 171 kts | 285° |
| 2026-04-21 18:12 | 37.19707 | 27.89381 | 4463 ft | 173 kts | 285° |
| 2026-04-21 18:12 | 37.20048 | 27.87929 | 4158 ft | 173 kts | 285° |
| 2026-04-21 18:12 | 37.20386 | 27.86494 | 3862 ft | 169 kts | 284° |
| 2026-04-21 18:12 | 37.20717 | 27.85090 | 3561 ft | 163 kts | 284° |
| 2026-04-21 18:13 | 37.21037 | 27.83735 | 3292 ft | 162 kts | 284° |
| 2026-04-21 18:13 | 37.21352 | 27.82398 | 3025 ft | 156 kts | 284° |
| 2026-04-21 18:13 | 37.21649 | 27.81141 | 2754 ft | 150 kts | 284° |
| 2026-04-21 18:13 | 37.21947 | 27.79880 | 2503 ft | 152 kts | 284° |
| 2026-04-21 18:14 | 37.22554 | 27.77312 | 1968 ft | 154 kts | 285° |
| 2026-04-21 18:14 | 37.22856 | 27.76033 | 1701 ft | 153 kts | 285° |
| 2026-04-21 18:14 | 37.23158 | 27.74759 | 1435 ft | 152 kts | 285° |
| 2026-04-21 18:15 | 37.23459 | 27.73495 | 1187 ft | 150 kts | 286° |
| 2026-04-21 18:15 | 37.23757 | 27.72240 | 942 ft | 150 kts | 286° |
| 2026-04-21 18:15 | 37.24051 | 27.70988 | 674 ft | 150 kts | 286° |
| 2026-04-21 18:15 | 37.24355 | 27.69740 | 363 ft | 148 kts | 285° |
| 2026-04-21 18:16 | 37.24641 | 27.68512 | 127 ft | 146 kts | 284° |
| 2026-04-21 18:16 | 37.24919 | 27.67326 | 31 ft | 129 kts | 287° |
| 2026-04-21 18:16 | 37.25133 | 27.66432 | 30 ft | 85 kts | 287° |
| 2026-04-21 18:16 | 37.25249 | 27.65920 | 28 ft | 41 kts | 274° |
| 2026-04-21 18:17 | 37.25235 | 27.65696 | 28 ft | 0 kts | 261° |
| 2026-04-21 18:17 | 37.25233 | 27.65688 | 28 ft | 3 kts | 258° |
| 2026-04-21 18:17 | 37.25222 | 27.65633 | 29 ft | 10 kts | 257° |
| 2026-04-21 18:17 | 37.25170 | 27.65602 | 29 ft | 11 kts | 137° |
| 2026-04-21 18:18 | 37.25138 | 27.65691 | 29 ft | 11 kts | 105° |
| 2026-04-21 18:18 | 37.25111 | 27.65800 | 29 ft | 16 kts | 108° |
| 2026-04-21 18:18 | 37.25079 | 27.65930 | 28 ft | 15 kts | 111° |
| 2026-04-21 18:18 | 37.24986 | 27.65942 | 28 ft | 15 kts | 197° |
| 2026-04-21 18:19 | 37.24914 | 27.65995 | 30 ft | 14 kts | 107° |
| 2026-04-21 18:19 | 37.24886 | 27.66112 | 30 ft | 14 kts | 107° |
| 2026-04-21 18:19 | 37.24859 | 27.66224 | 29 ft | 13 kts | 107° |
| 2026-04-21 18:19 | 37.24834 | 27.66332 | 29 ft | 13 kts | 107° |
| 2026-04-21 18:20 | 37.24809 | 27.66436 | 29 ft | 12 kts | 107° |
| 2026-04-21 18:20 | 37.24769 | 27.66530 | 29 ft | 12 kts | 116° |
| 2026-04-21 18:20 | 37.24744 | 27.66628 | 29 ft | 12 kts | 106° |
| 2026-04-21 18:20 | 37.24720 | 27.66726 | 29 ft | 11 kts | 107° |
| 2026-04-21 18:21 | 37.24698 | 27.66819 | 29 ft | 11 kts | 106° |
| 2026-04-21 18:21 | 37.24676 | 27.66911 | 29 ft | 11 kts | 107° |
| 2026-04-21 18:21 | 37.24655 | 27.67001 | 29 ft | 11 kts | 106° |
| 2026-04-21 18:21 | 37.24634 | 27.67087 | 29 ft | 10 kts | 107° |
| 2026-04-21 18:22 | 37.24614 | 27.67171 | 30 ft | 10 kts | 107° |
| 2026-04-21 18:22 | 37.24595 | 27.67253 | 30 ft | 10 kts | 106° |
| 2026-04-21 18:22 | 37.24576 | 27.67333 | 28 ft | 9 kts | 107° |
| 2026-04-21 18:22 | 37.24557 | 27.67411 | 30 ft | 9 kts | 106° |
| 2026-04-21 18:23 | 37.24539 | 27.67486 | 30 ft | 9 kts | 106° |
| 2026-04-21 18:23 | 37.24522 | 27.67560 | 30 ft | 9 kts | 107° |
| 2026-04-21 18:23 | 37.24479 | 27.67596 | 30 ft | 9 kts | 190° |
| 2026-04-21 18:23 | 37.24438 | 27.67582 | 30 ft | 4 kts | 197° |
| 2026-04-21 18:24 | 37.24434 | 27.67580 | 30 ft | 0 kts | 197° |